Time;durP1;ratioP1;P1;durP2;ratioP2;P2;SDS_P1;SDS_P2;PMS_P1;PMS_P2;Temp;Humidity;BMP_temperature;BMP_pressure;BME280_temperature;BME280_humidity;BME280_pressure;Samples;Min_cycle;Max_cycle;Signal;HPM_P1;HPM_P2
2022/05/02 00:00:33;;;;;;;0.13;0.13;;;;;;;20.65;40.41;101650.50;5126558;27;20075;-32
2022/05/02 00:02:59;;;;;;;0.10;0.10;;;;;;;20.65;40.40;101659.63;5128725;27;20074;-31
2022/05/02 00:05:27;;;;;;;0.10;0.10;;;;;;;20.65;40.46;101654.09;5132533;27;20043;-31
2022/05/02 00:07:52;;;;;;;0.10;0.10;;;;;;;20.66;40.57;101654.91;5113334;27;20125;-31
2022/05/02 00:10:18;;;;;;;0.10;0.10;;;;;;;20.64;40.39;101652.44;5133718;27;20054;-30
2022/05/02 00:12:44;;;;;;;0.10;0.10;;;;;;;20.64;40.37;101655.19;5132749;27;20074;-32
2022/05/02 00:15:10;;;;;;;0.20;0.20;;;;;;;20.64;40.47;101651.56;5115113;27;20054;-32
2022/05/02 00:18:08;;;;;;;0.10;0.10;;;;;;;20.64;40.34;101644.13;5110391;27;20085;-34
2022/05/02 00:20:23;;;;;;;0.10;0.10;;;;;;;20.64;40.40;101646.03;5104589;27;20154;-29
2022/05/02 00:22:49;;;;;;;0.20;0.20;;;;;;;20.64;40.50;101637.75;5115351;27;20181;-30
2022/05/02 00:25:15;;;;;;;0.10;0.10;;;;;;;20.64;40.33;101644.13;5116364;27;20462;-30
2022/05/02 00:27:41;;;;;;;0.10;0.10;;;;;;;20.65;40.53;101636.66;5117606;27;20504;-30
2022/05/02 00:30:09;;;;;;;0.10;0.10;;;;;;;20.65;40.37;101631.94;5133075;27;20079;-31
2022/05/02 00:32:34;;;;;;;0.10;0.10;;;;;;;20.65;40.38;101629.19;5132176;27;20513;-30
2022/05/02 00:35:00;;;;;;;0.10;0.10;;;;;;;20.64;40.30;101624.75;5094931;27;21965;-31
2022/05/02 00:37:26;;;;;;;0.20;0.20;;;;;;;20.64;40.31;101633.06;5130542;27;20703;-31
2022/05/02 00:39:52;;;;;;;0.20;0.20;;;;;;;20.63;40.37;101622.25;5135022;27;20043;-31
2022/05/02 00:42:20;;;;;;;0.10;0.10;;;;;;;20.64;40.24;101627.53;5133615;27;20057;-30
2022/05/02 00:44:45;;;;;;;0.10;0.10;;;;;;;20.64;40.50;101623.91;5135467;27;20070;-30
2022/05/02 00:47:15;;;;;;;0.10;0.10;;;;;;;20.64;40.48;101626.66;5132764;27;20047;-32
2022/05/02 00:49:42;;;;;;;0.10;0.10;;;;;;;20.64;40.56;101622.00;5111441;27;20482;-30
2022/05/02 00:52:08;;;;;;;0.10;0.10;;;;;;;20.64;40.47;101618.38;5134824;27;20085;-31
2022/05/02 00:54:35;;;;;;;0.10;0.10;;;;;;;20.64;40.34;101618.38;5132142;27;20035;-29
2022/05/02 00:57:01;;;;;;;0.10;0.10;;;;;;;20.63;40.35;101617.53;5131956;27;20099;-30
2022/05/02 00:59:28;;;;;;;0.20;0.20;;;;;;;20.64;40.53;101615.59;5135032;27;20147;-30
2022/05/02 01:01:53;;;;;;;0.10;0.10;;;;;;;20.64;40.59;101615.59;5133359;27;20085;-30
2022/05/02 01:04:19;;;;;;;0.15;0.15;;;;;;;20.63;40.50;101605.63;5132444;27;20047;-31
2022/05/02 01:09:32;;;;;;;0.10;0.10;;;;;;;20.64;40.55;101608.16;5116827;27;20134;-32
2022/05/02 01:11:57;;;;;;;0.13;0.13;;;;;;;20.63;40.50;101602.88;5126560;27;20466;-32
2022/05/02 01:14:23;;;;;;;0.10;0.10;;;;;;;20.65;40.34;101606.22;5135212;27;20081;-32
2022/05/02 01:16:49;;;;;;;0.10;0.10;;;;;;;20.63;40.46;101600.09;5126354;27;20047;-29
2022/05/02 01:19:15;;;;;;;0.10;0.10;;;;;;;20.64;40.26;101597.09;5130289;27;20394;-31
2022/05/02 01:21:43;;;;;;;0.10;0.10;;;;;;;20.64;40.25;101610.06;5131533;27;20477;-32
2022/05/02 01:24:09;;;;;;;0.10;0.10;;;;;;;20.64;40.54;101608.16;5115356;27;20134;-29
2022/05/02 01:26:34;;;;;;;0.20;0.20;;;;;;;20.64;40.58;101607.28;5130631;27;20081;-31
2022/05/02 01:29:01;;;;;;;0.20;0.20;;;;;;;20.64;40.19;101616.47;5135367;27;20055;-30
2022/05/02 01:31:27;;;;;;;0.10;0.10;;;;;;;20.63;40.65;101606.47;5131402;27;20054;-32
2022/05/02 01:33:53;;;;;;;0.10;0.10;;;;;;;20.64;40.54;101608.16;5131996;27;20046;-31
2022/05/02 01:36:20;;;;;;;0.10;0.10;;;;;;;20.63;40.34;101602.88;5113273;28;20043;-32
2022/05/02 01:38:46;;;;;;;0.10;0.10;;;;;;;20.64;40.56;101604.53;5136612;27;20576;-30
2022/05/02 01:41:11;;;;;;;0.15;0.15;;;;;;;20.64;40.72;101599.00;5118091;27;20122;-31
2022/05/02 01:43:38;;;;;;;0.10;0.10;;;;;;;20.62;40.57;101599.28;5132264;27;20070;-30
2022/05/02 01:46:06;;;;;;;0.20;0.20;;;;;;;20.63;40.56;101598.16;5128364;27;20070;-33
2022/05/02 01:48:31;;;;;;;0.10;0.10;;;;;;;20.64;40.26;101596.22;5111912;27;20085;-29
2022/05/02 01:50:58;;;;;;;0.10;0.10;;;;;;;20.63;40.68;101594.56;5116118;27;20042;-30
2022/05/02 01:53:24;;;;;;;0.17;0.17;;;;;;;20.63;40.49;101589.03;5130783;27;20139;-32
2022/05/02 01:55:49;;;;;;;0.20;0.20;;;;;;;20.64;40.38;101585.16;5134958;27;20430;-32
2022/05/02 01:58:15;;;;;;;0.10;0.10;;;;;;;20.63;40.43;101580.72;5112042;28;20087;-30
2022/05/02 02:00:41;;;;;;;0.20;0.20;;;;;;;20.62;40.63;101590.97;5110412;27;20317;-29
2022/05/02 02:03:07;;;;;;;0.10;0.10;;;;;;;20.62;40.35;101585.44;5128829;27;20139;-29
2022/05/02 02:05:48;;;;;;;0.17;0.17;;;;;;;20.64;40.57;101582.38;5133461;27;20169;-31
2022/05/02 02:08:23;;;;;;;0.10;0.10;;;;;;;20.64;40.40;101590.69;5114844;27;20043;-29
2022/05/02 02:10:51;;;;;;;0.10;0.10;;;;;;;20.64;40.30;101580.47;5115129;27;20093;-32
2022/05/02 02:13:17;;;;;;;0.10;0.10;;;;;;;20.63;40.46;101575.19;5113716;27;20130;-30
2022/05/02 02:15:43;;;;;;;0.10;0.10;;;;;;;20.64;40.29;101571.31;5095484;27;20082;-30
2022/05/02 02:18:08;;;;;;;0.10;0.10;;;;;;;20.62;40.41;101570.78;5127224;27;20079;-30
2022/05/02 02:20:35;;;;;;;0.10;0.10;;;;;;;20.62;40.49;101576.31;5131324;27;20063;-30
2022/05/02 02:23:00;;;;;;;0.10;0.10;;;;;;;20.63;40.43;101575.19;5124125;27;20075;-33
2022/05/02 02:25:26;;;;;;;0.10;0.10;;;;;;;20.64;40.26;101577.72;5119094;27;20127;-33
2022/05/02 02:27:53;;;;;;;0.10;0.10;;;;;;;20.63;40.26;101578.78;5126771;27;20047;-31
2022/05/02 02:30:19;;;;;;;0.20;0.20;;;;;;;20.62;40.26;101574.38;5133998;27;20126;-31
2022/05/02 02:32:45;;;;;;;0.10;0.10;;;;;;;20.62;40.34;101573.53;5128432;27;20618;-30
2022/05/02 02:35:11;;;;;;;0.10;0.10;;;;;;;20.63;40.40;101570.50;5117130;27;20058;-29
2022/05/02 02:37:37;;;;;;;0.10;0.10;;;;;;;20.62;40.49;101568.84;5131020;27;20052;-34
2022/05/02 02:40:03;;;;;;;0.20;0.20;;;;;;;20.61;40.43;101569.94;5116260;27;20047;-30
2022/05/02 02:42:29;;;;;;;0.10;0.10;;;;;;;20.63;40.67;101576.03;5131909;27;20075;-33
2022/05/02 02:44:54;;;;;;;0.10;0.10;;;;;;;20.62;40.71;101568.84;5129159;27;20046;-29
2022/05/02 02:47:20;;;;;;;0.10;0.10;;;;;;;20.62;40.49;101568.00;5128197;27;20100;-30
2022/05/02 02:49:45;;;;;;;0.15;0.15;;;;;;;20.62;40.57;101568.00;5131402;27;20547;-30
2022/05/02 02:52:11;;;;;;;0.10;0.10;;;;;;;20.62;40.41;101563.31;5127489;27;20036;-33
2022/05/02 02:54:37;;;;;;;0.10;0.10;;;;;;;20.63;40.42;101561.34;5129995;27;20043;-32
2022/05/02 02:57:03;;;;;;;0.10;0.10;;;;;;;20.62;40.56;101563.31;5130394;27;20051;-30
2022/05/02 02:59:28;;;;;;;0.20;0.20;;;;;;;20.63;40.72;101564.13;5110137;27;20051;-30
2022/05/02 03:01:56;;;;;;;0.10;0.10;;;;;;;20.62;40.34;101556.94;5126565;27;20039;-29
2022/05/02 03:07:08;;;;;;;0.17;0.17;;;;;;;20.62;40.39;101556.94;5097834;27;20094;-31
2022/05/02 03:09:33;;;;;;;0.20;0.20;;;;;;;20.62;40.26;101554.16;5129502;27;20496;-30
2022/05/02 03:11:59;;;;;;;0.20;0.20;;;;;;;20.61;40.19;101547.81;5129360;27;20520;-29
2022/05/02 03:14:25;;;;;;;0.20;0.20;;;;;;;20.62;40.40;101548.63;5135496;27;20041;-31
2022/05/02 03:16:50;;;;;;;0.20;0.20;;;;;;;20.62;40.35;101552.22;5126940;27;20039;-30
2022/05/02 03:19:16;;;;;;;0.20;0.20;;;;;;;20.63;40.32;101547.53;5135483;27;20039;-30
2022/05/02 03:21:42;;;;;;;0.10;0.10;;;;;;;20.62;40.38;101552.22;5114005;28;20046;-31
2022/05/02 03:24:08;;;;;;;0.20;0.20;;;;;;;20.61;40.56;101545.03;5129739;27;20480;-30
2022/05/02 03:26:33;;;;;;;0.20;0.20;;;;;;;20.63;40.66;101547.53;5125591;27;20043;-31
2022/05/02 03:28:59;;;;;;;0.10;0.10;;;;;;;20.62;40.77;101543.09;5128612;27;20051;-30
2022/05/02 03:31:25;;;;;;;0.13;0.13;;;;;;;20.61;40.47;101542.28;5127128;27;20043;-30
2022/05/02 03:33:50;;;;;;;0.20;0.20;;;;;;;20.62;40.39;101543.09;5129499;27;20058;-30
2022/05/02 03:36:16;;;;;;;0.20;0.20;;;;;;;20.63;40.27;101544.75;5108248;27;20068;-30
2022/05/02 03:38:42;;;;;;;0.20;0.20;;;;;;;20.63;40.59;101544.75;5107088;27;21221;-29
2022/05/02 03:41:07;;;;;;;0.20;0.20;;;;;;;20.62;40.34;101541.16;5133471;27;20047;-30
2022/05/02 03:43:34;;;;;;;0.20;0.20;;;;;;;20.61;40.50;101539.50;5137245;27;20035;-30
2022/05/02 03:45:59;;;;;;;0.10;0.10;;;;;;;20.61;40.42;101539.50;5136130;27;20143;-31
2022/05/02 03:48:26;;;;;;;0.10;0.10;;;;;;;20.62;40.54;101541.16;5132628;27;20470;-32
2022/05/02 03:50:52;;;;;;;0.10;0.10;;;;;;;20.62;40.55;101537.56;5133328;27;20074;-30
2022/05/02 03:53:19;;;;;;;0.10;0.10;;;;;;;20.61;40.48;101542.28;5117175;28;20125;-30
2022/05/02 03:55:45;;;;;;;0.10;0.10;;;;;;;20.61;40.41;101542.28;5137024;27;20078;-31
2022/05/02 03:58:11;;;;;;;0.20;0.20;;;;;;;20.61;40.51;101531.22;5132625;27;20079;-30
2022/05/02 04:00:37;;;;;;;0.10;0.10;;;;;;;20.62;40.67;101537.56;5114211;27;20179;-30
2022/05/02 04:03:03;;;;;;;0.20;0.20;;;;;;;20.62;40.55;101538.41;5132954;27;20051;-30
2022/05/02 04:05:29;;;;;;;0.20;0.20;;;;;;;20.60;40.64;101537.84;5095585;27;20121;-30
2022/05/02 04:07:54;;;;;;;0.10;0.10;;;;;;;20.61;40.61;101533.97;5131949;27;20035;-29
2022/05/02 04:10:20;;;;;;;0.10;0.10;;;;;;;20.61;40.40;101538.69;5136896;27;20043;-31
2022/05/02 04:12:46;;;;;;;0.10;0.10;;;;;;;20.61;40.34;101535.91;5113862;27;20134;-31
2022/05/02 04:15:12;;;;;;;0.10;0.10;;;;;;;20.62;40.15;101537.56;5134137;27;20049;-30
2022/05/02 04:17:38;;;;;;;0.20;0.20;;;;;;;20.61;40.48;101533.16;5130809;27;20134;-30
2022/05/02 04:20:05;;;;;;;0.20;0.20;;;;;;;20.60;40.29;101534.25;5129275;27;20142;-32
2022/05/02 04:22:31;;;;;;;0.10;0.10;;;;;;;20.61;40.39;101535.91;5112404;27;20481;-30
2022/05/02 04:24:57;;;;;;;0.10;0.10;;;;;;;20.60;40.57;101537.84;5114732;27;20766;-31
2022/05/02 04:27:23;;;;;;;0.20;0.20;;;;;;;20.61;40.27;101535.91;5129395;27;20040;-30
2022/05/02 04:29:48;;;;;;;0.20;0.20;;;;;;;20.61;40.54;101544.22;5110282;28;20118;-30
2022/05/02 04:32:14;;;;;;;0.10;0.10;;;;;;;20.61;40.64;101546.97;5129635;27;20050;-30
2022/05/02 04:34:39;;;;;;;0.10;0.10;;;;;;;20.60;40.37;101545.31;5134836;27;20421;-30
2022/05/02 04:37:07;;;;;;;0.30;0.30;;;;;;;20.61;40.53;101544.22;5116747;27;20043;-30
2022/05/02 04:39:33;;;;;;;0.20;0.20;;;;;;;20.61;40.60;101552.50;5140105;27;20188;-27
2022/05/02 04:41:59;;;;;;;0.10;0.10;;;;;;;20.61;40.58;101549.75;5134034;27;20118;-31
2022/05/02 04:44:25;;;;;;;0.10;0.10;;;;;;;20.61;40.20;101544.22;5130735;27;20370;-30
2022/05/02 04:46:50;;;;;;;0.20;0.20;;;;;;;20.60;40.53;101556.41;5132639;27;21276;-29
2022/05/02 04:49:16;;;;;;;0.10;0.10;;;;;;;20.60;40.43;101557.22;5131531;27;20042;-29
2022/05/02 04:51:41;;;;;;;0.10;0.10;;;;;;;20.59;40.34;101551.94;5129106;27;20039;-31
2022/05/02 04:54:07;;;;;;;0.10;0.10;;;;;;;20.61;40.35;101558.06;5134166;27;20047;-32
2022/05/02 04:56:33;;;;;;;0.20;0.20;;;;;;;20.60;40.61;101557.22;5133393;27;20078;-30
2022/05/02 04:58:58;;;;;;;0.20;0.20;;;;;;;20.60;40.56;101553.63;5111814;27;20508;-32
2022/05/02 05:01:24;;;;;;;0.10;0.10;;;;;;;20.60;40.52;101551.69;5130340;27;20055;-31
2022/05/02 05:03:50;;;;;;;0.10;0.10;;;;;;;20.61;40.37;101552.50;5134337;27;20057;-30
2022/05/02 05:06:17;;;;;;;0.20;0.20;;;;;;;20.59;40.26;101550.00;5130797;27;20138;-30
2022/05/02 05:08:42;;;;;;;0.10;0.10;;;;;;;20.59;40.36;101552.78;5129686;27;20138;-31
2022/05/02 05:17:30;;;;;;;0.20;0.20;;;;;;;20.60;40.39;101553.63;5114921;27;20131;-26
2022/05/02 05:28:49;;;;;;;0.20;0.20;;;;;;;20.59;40.67;101546.41;5118061;27;20134;-29
2022/05/02 05:34:43;;;;;;;0.20;0.20;;;;;;;20.59;40.43;101547.25;5167254;27;20120;-25
2022/05/02 05:37:37;;;;;;;0.15;0.15;;;;;;;20.58;40.39;101547.53;5125011;27;20486;-24
2022/05/02 05:40:38;;;;;;;0.20;0.20;;;;;;;20.59;40.40;101547.25;5118790;27;20507;-24
2022/05/02 05:43:41;;;;;;;0.20;0.20;;;;;;;20.59;40.35;101549.19;5115871;27;20158;-24
2022/05/02 05:46:35;;;;;;;0.20;0.20;;;;;;;20.59;40.35;101549.19;5127959;27;20122;-24
2022/05/02 05:49:17;;;;;;;0.20;0.20;;;;;;;20.45;39.30;101549.69;5129241;27;20096;-33
2022/05/02 05:52:05;;;;;;;0.20;0.20;;;;;;;20.50;40.13;101549.72;5132621;27;20143;-26
2022/05/02 05:54:40;;;;;;;0.10;0.10;;;;;;;20.58;40.40;101551.13;5119774;27;20070;-26
2022/05/02 05:57:42;;;;;;;0.10;0.10;;;;;;;20.60;40.39;101548.09;5128333;27;20138;-26
2022/05/02 06:00:11;;;;;;;0.10;0.10;;;;;;;20.63;40.60;101551.13;5108599;27;20170;-27
2022/05/02 06:03:16;;;;;;;0.10;0.10;;;;;;;20.61;40.36;101553.34;5127089;27;20123;-28
2022/05/02 06:05:44;;;;;;;0.10;0.10;;;;;;;20.64;40.49;101551.94;5096822;27;20173;-27
2022/05/02 06:08:15;;;;;;;0.20;0.20;;;;;;;20.65;40.14;101550.88;5110489;27;20047;-27
2022/05/02 06:10:42;;;;;;;0.10;0.10;;;;;;;20.65;40.20;101551.69;5114618;27;20122;-27
2022/05/02 06:13:08;;;;;;;0.10;0.10;;;;;;;20.66;40.13;101558.06;5129030;27;20138;-26
2022/05/02 06:18:27;;;;;;;0.10;0.10;;;;;;;20.67;40.28;101554.16;5122079;27;20047;-27
2022/05/02 06:20:55;;;;;;;0.20;0.20;;;;;;;20.68;40.08;101564.97;5129244;27;20071;-27
2022/05/02 06:23:23;;;;;;;0.10;0.10;;;;;;;20.69;40.28;101554.75;5128286;27;20130;-28
2022/05/02 06:25:49;;;;;;;0.17;0.17;;;;;;;20.71;40.01;101560.81;5130055;27;20071;-27
2022/05/02 06:28:16;;;;;;;0.20;0.20;;;;;;;20.71;40.21;101563.59;5131114;27;20081;-27
2022/05/02 06:30:43;;;;;;;0.10;0.10;;;;;;;20.72;40.20;101562.47;5127403;27;20082;-28
2022/05/02 06:33:11;;;;;;;0.10;0.10;;;;;;;20.73;40.10;101553.09;5130673;27;20117;-26
2022/05/02 06:36:17;;;;;;;0.10;0.10;;;;;;;20.75;39.95;101560.00;5112553;27;20134;-28
2022/05/02 06:39:05;;;;;;;0.20;0.20;;;;;;;20.76;40.07;101564.41;5112957;27;20606;-27
2022/05/02 06:42:11;;;;;;;0.20;0.20;;;;;;;20.76;39.98;101561.63;5128237;27;20134;-26
2022/05/02 06:45:16;;;;;;;0.20;0.20;;;;;;;20.77;39.86;101563.31;5093499;28;20067;-27
2022/05/02 06:48:17;;;;;;;0.20;0.20;;;;;;;20.77;40.21;101563.31;5087652;28;20040;-26
2022/05/02 06:50:47;;;;;;;0.10;0.10;;;;;;;20.79;39.91;101565.81;5097901;28;20554;-26
2022/05/02 06:56:17;;;;;;;0.10;0.10;;;;;;;20.82;40.04;101562.50;5171701;27;20340;-29
2022/05/02 06:59:06;;;;;;;0.10;0.10;;;;;;;20.82;40.01;101559.72;5142074;27;20130;-29
2022/05/02 07:04:51;;;;;;;0.20;0.20;;;;;;;20.82;40.12;101565.25;5149662;27;20210;-28
2022/05/02 07:07:44;;;;;;;0.10;0.10;;;;;;;20.80;39.82;101551.69;5130024;27;20547;-27
2022/05/02 07:10:19;;;;;;;0.20;0.20;;;;;;;20.84;39.98;101564.97;5134265;27;20520;-28
2022/05/02 07:13:10;;;;;;;0.20;0.20;;;;;;;20.84;39.92;101559.44;5132221;27;20572;-28
2022/05/02 07:15:45;;;;;;;0.10;0.10;;;;;;;20.84;39.90;101562.22;5137577;27;20296;-29
2022/05/02 07:18:30;;;;;;;0.10;0.10;;;;;;;20.84;39.77;101564.97;5154186;27;20085;-29
2022/05/02 07:21:11;;;;;;;0.20;0.20;;;;;;;20.84;39.77;101570.50;5154808;27;20696;-28
2022/05/02 07:24:02;;;;;;;0.20;0.20;;;;;;;20.82;39.89;101561.66;5158351;27;20129;-30
2022/05/02 07:26:30;;;;;;;0.20;0.20;;;;;;;20.83;39.72;101561.38;5144007;27;20113;-28
2022/05/02 07:28:59;;;;;;;0.10;0.10;;;;;;;20.83;40.10;101560.56;5158035;27;20084;-29
2022/05/02 07:31:25;;;;;;;0.10;0.10;;;;;;;20.83;39.79;101560.56;5157733;27;20137;-28
2022/05/02 07:33:52;;;;;;;0.10;0.10;;;;;;;20.84;39.77;101556.66;5137313;27;20094;-29
2022/05/02 07:36:23;;;;;;;0.20;0.20;;;;;;;20.83;39.92;101555.84;5133503;27;20082;-29
2022/05/02 07:38:54;;;;;;;0.10;0.10;;;;;;;20.82;39.88;101556.97;5114076;27;20896;-28
2022/05/02 07:41:25;;;;;;;0.20;0.20;;;;;;;20.83;40.27;101561.38;5121881;27;20137;-39
2022/05/02 07:44:07;;;;;;;0.20;0.20;;;;;;;20.87;38.97;101562.50;5116262;27;20080;-32
2022/05/02 07:46:42;;;;;;;0.10;0.10;;;;;;;20.73;38.39;101562.22;5135152;27;20142;-31
2022/05/02 07:49:10;;;;;;;0.20;0.20;;;;;;;20.91;39.57;101558.06;5113969;27;20154;-31
2022/05/02 07:51:38;;;;;;;;;;;;;;;20.96;39.68;101557.22;5133701;27;20554;-32
2022/05/02 07:54:04;;;;;;;0.10;0.10;;;;;;;20.95;39.84;101555.56;5134225;27;19919;-31
2022/05/02 07:56:32;;;;;;;0.10;0.10;;;;;;;20.97;39.78;101558.88;5131052;27;20138;-30
2022/05/02 07:58:58;;;;;;;0.10;0.10;;;;;;;20.97;39.57;101559.69;5130188;27;21171;-30
2022/05/02 08:01:25;;;;;;;0.20;0.20;;;;;;;20.98;39.52;101555.00;5130016;27;20137;-30
2022/05/02 08:03:52;;;;;;;0.20;0.20;;;;;;;20.99;39.50;101556.69;5126072;27;20328;-30
2022/05/02 08:09:56;;;;;;;0.20;0.20;;;;;;;20.99;39.60;101557.50;5148969;27;20353;-28
2022/05/02 08:12:48;;;;;;;0.20;0.20;;;;;;;21.00;39.67;101550.03;5119971;27;20078;-27
2022/05/02 08:15:18;;;;;;;0.10;0.10;;;;;;;21.02;39.52;101556.09;5104833;27;20744;-28
2022/05/02 08:21:00;;;;;;;0.10;0.10;;;;;;;21.02;39.48;101551.38;5146694;27;20137;-28
2022/05/02 08:27:19;;;;;;;0.13;0.13;;;;;;;21.04;39.46;101542.81;5116566;27;20081;-28
2022/05/02 08:30:09;;;;;;;0.20;0.20;;;;;;;20.90;37.52;101548.09;5130713;27;20137;-36
2022/05/02 08:33:04;;;;;;;0.10;0.10;;;;;;;20.50;38.17;101535.88;5128327;27;20154;-34
2022/05/02 08:36:09;;;;;;;0.20;0.20;;;;;;;20.67;39.60;101548.63;5123253;27;20090;-27
2022/05/02 08:38:53;;;;;;;0.10;0.10;;;;;;;20.95;39.04;101544.50;5135451;27;20085;-28
2022/05/02 08:41:57;;;;;;;0.10;0.10;;;;;;;21.05;39.11;101536.16;5147700;27;20495;-29
2022/05/02 08:44:50;;;;;;;0.20;0.20;;;;;;;21.11;38.92;101535.03;5134162;27;20042;-29
2022/05/02 08:47:56;;;;;;;0.10;0.10;;;;;;;21.14;38.89;101540.03;5129752;27;20558;-29
2022/05/02 08:50:28;;;;;;;0.20;0.20;;;;;;;21.15;38.98;101538.09;5124131;27;20448;-28
2022/05/02 08:53:33;;;;;;;0.10;0.10;;;;;;;21.17;38.94;101538.66;5148360;27;20379;-28
2022/05/02 08:56:36;;;;;;;0.55;0.40;;;;;;;21.17;39.01;101533.94;5130548;27;20051;-28
2022/05/02 08:59:38;;;;;;;0.20;0.20;;;;;;;21.19;38.88;101537.25;5130950;27;20125;-28
2022/05/02 09:02:43;;;;;;;0.20;0.20;;;;;;;21.21;39.00;101521.19;5132051;27;20564;-29
2022/05/02 09:05:49;;;;;;;0.17;0.17;;;;;;;21.23;39.02;101531.97;5127366;27;20060;-28
2022/05/02 09:08:55;;;;;;;0.20;0.20;;;;;;;21.22;39.07;101536.69;5127990;27;20542;-29
2022/05/02 09:11:32;;;;;;;0.20;0.20;;;;;;;21.25;38.93;101533.38;5122553;27;20126;-29
2022/05/02 09:14:37;;;;;;;0.10;0.10;;;;;;;21.25;39.09;101532.53;5128507;27;20363;-28
2022/05/02 09:17:42;;;;;;;0.20;0.20;;;;;;;21.19;38.98;101525.34;5128735;27;20438;-28
2022/05/02 09:20:38;;;;;;;0.20;0.20;;;;;;;21.27;38.64;101533.09;5110048;27;20262;-29
2022/05/02 09:23:37;;;;;;;0.20;0.20;;;;;;;21.30;38.63;101527.81;5123444;27;20479;-28
2022/05/02 09:29:13;;;;;;;0.10;0.10;;;;;;;21.28;38.76;101527.25;5151079;27;20117;-24
2022/05/02 09:31:53;;;;;;;0.10;0.10;;;;;;;21.31;38.81;101523.09;5132760;27;20121;-25
2022/05/02 09:34:35;;;;;;;0.10;0.10;;;;;;;21.34;38.79;101525.34;5151625;27;20057;-25
2022/05/02 09:37:06;;;;;;;0.10;0.10;;;;;;;21.35;38.62;101523.41;5125993;27;20137;-25
2022/05/02 09:39:52;;;;;;;0.20;0.20;;;;;;;21.35;38.79;101513.16;5140423;27;20361;-25
2022/05/02 09:42:57;;;;;;;0.10;0.10;;;;;;;21.36;38.39;101519.53;5124526;27;20052;-25
2022/05/02 09:52:03;;;;;;;0.10;0.10;;;;;;;21.32;37.68;101510.94;5155477;27;20213;-32
2022/05/02 09:57:41;;;;;;;0.10;0.10;;;;;;;21.00;35.47;101506.53;5120593;27;20219;-49
2022/05/02 10:03:01;;;;;;;0.20;0.20;;;;;;;21.32;36.88;101499.03;5125094;27;21303;-28
2022/05/02 10:05:37;;;;;;;0.20;0.20;;;;;;;21.40;37.35;101504.00;5151844;27;20300;-30
2022/05/02 10:08:13;;;;;;;0.10;0.10;;;;;;;21.43;37.27;101490.41;5137339;27;20192;-32
2022/05/02 10:10:59;;;;;;;0.10;0.10;;;;;;;21.46;37.37;101497.31;5155214;27;20222;-30
2022/05/02 10:14:04;;;;;;;0.10;0.10;;;;;;;21.47;37.10;101488.72;5157574;27;20232;-30
2022/05/02 10:16:39;;;;;;;0.10;0.10;;;;;;;21.48;37.24;101484.00;5140129;27;20495;-31
2022/05/02 10:22:12;;;;;;;0.10;0.10;;;;;;;21.51;37.62;101484.28;5157556;27;20113;-30
2022/05/02 10:25:08;;;;;;;0.10;0.10;;;;;;;21.52;37.51;101477.63;5127652;27;20428;-32
2022/05/02 10:28:00;;;;;;;0.10;0.10;;;;;;;21.54;37.61;101475.41;5122127;27;20171;-33
2022/05/02 10:30:29;;;;;;;0.20;0.20;;;;;;;21.54;37.76;101478.19;5123345;27;20488;-31
2022/05/02 10:32:56;;;;;;;0.10;0.10;;;;;;;21.56;37.63;101477.88;5136004;27;20043;-29
2022/05/02 10:35:24;;;;;;;0.10;0.10;;;;;;;21.56;37.50;101486.19;5135878;27;20565;-33
2022/05/02 10:37:59;;;;;;;0.10;0.10;;;;;;;21.57;37.56;101478.72;5106424;27;20126;-30
2022/05/02 10:40:41;;;;;;;0.17;0.17;;;;;;;21.56;37.70;101482.59;5114386;27;20079;-31
2022/05/02 10:43:10;;;;;;;0.10;0.10;;;;;;;21.57;37.78;101475.94;5141622;27;20464;-30
2022/05/02 10:45:37;;;;;;;0.10;0.10;;;;;;;21.59;37.82;101479.25;5118493;27;20043;-30
2022/05/02 10:54:02;;;;;;;0.17;0.17;;;;;;;21.66;37.61;101477.00;5154968;27;20381;-29
2022/05/02 10:56:35;;;;;;;0.10;0.10;;;;;;;21.65;37.68;101470.63;5135833;27;20135;-29
2022/05/02 10:59:04;;;;;;;0.10;0.10;;;;;;;21.65;37.55;101469.81;5134795;27;20043;-28
2022/05/02 11:02:02;;;;;;;0.10;0.10;;;;;;;21.64;37.72;101465.38;5134828;27;20082;-28
2022/05/02 11:04:53;;;;;;;0.10;0.10;;;;;;;21.63;37.73;101472.03;5120040;27;20129;-29
2022/05/02 11:07:27;;;;;;;0.10;0.10;;;;;;;21.63;37.85;101461.78;5146017;27;20100;-30
2022/05/02 11:50:03;;;;;;;0.10;0.10;;;;;;;21.51;38.11;101431.63;5148476;27;20352;-30
2022/05/02 11:52:31;;;;;;;0.10;0.10;;;;;;;21.49;37.95;101425.53;5102684;27;20039;-30
2022/05/02 11:54:59;;;;;;;0.10;0.10;;;;;;;21.49;38.28;101422.75;5116293;27;20050;-29
2022/05/02 11:57:28;;;;;;;0.10;0.10;;;;;;;21.49;38.11;101419.16;5114923;27;20316;-29
2022/05/02 12:00:11;;;;;;;0.10;0.10;;;;;;;21.49;38.06;101417.22;5122236;27;20078;-30
2022/05/02 12:05:31;;;;;;;0.10;0.10;;;;;;;21.46;38.03;101423.34;5154124;27;20132;-29
2022/05/02 12:08:00;;;;;;;0.10;0.10;;;;;;;21.51;38.00;101419.72;5149425;27;20101;-27
2022/05/02 12:10:37;;;;;;;0.10;0.10;;;;;;;21.51;37.88;101417.78;5147855;27;20173;-30
2022/05/02 12:13:05;;;;;;;0.17;0.17;;;;;;;21.53;37.95;101423.84;5154362;27;20153;-29
2022/05/02 12:15:31;;;;;;;0.10;0.10;;;;;;;21.55;38.17;101418.03;5154040;27;20081;-28
2022/05/02 12:18:01;;;;;;;0.10;0.10;;;;;;;21.56;37.96;101413.31;5138247;27;20481;-28
2022/05/02 12:20:36;;;;;;;0.10;0.10;;;;;;;21.56;38.05;101413.31;5153883;27;20081;-31
2022/05/02 12:23:11;;;;;;;0.10;0.10;;;;;;;21.56;37.88;101416.91;5138502;27;20493;-28
2022/05/02 12:25:54;;;;;;;0.10;0.10;;;;;;;21.57;37.85;101412.19;5158902;27;20408;-29
2022/05/02 12:28:41;;;;;;;0.20;0.20;;;;;;;21.36;37.00;101412.28;5153726;27;20387;-47
2022/05/02 12:31:10;;;;;;;0.20;0.20;;;;;;;21.03;36.20;101408.25;5148766;27;20098;-40
2022/05/02 12:33:39;;;;;;;0.63;0.63;;;;;;;21.22;36.83;101405.69;5155538;27;20073;-30
2022/05/02 12:36:15;;;;;;;0.10;0.10;;;;;;;21.36;36.89;101398.44;5137746;27;20082;-30
2022/05/02 12:38:43;;;;;;;0.10;0.10;;;;;;;21.50;36.67;101405.03;5151449;27;20618;-29
2022/05/02 12:41:11;;;;;;;0.10;0.10;;;;;;;21.56;36.88;101396.69;5129653;27;20131;-30
2022/05/02 12:43:44;;;;;;;0.10;0.10;;;;;;;21.61;36.61;101400.25;5152866;27;20434;-29
2022/05/02 12:46:10;;;;;;;0.10;0.10;;;;;;;21.63;36.95;101406.34;5155529;27;20107;-29
2022/05/02 12:48:38;;;;;;;0.10;0.10;;;;;;;21.64;36.98;101399.69;5156649;27;20169;-31
2022/05/02 12:51:07;;;;;;;0.10;0.10;;;;;;;21.65;37.06;101400.50;5161037;27;20074;-29
2022/05/02 12:56:18;;;;;;;0.10;0.10;;;;;;;21.68;37.19;101383.31;5142174;27;20049;-30
2022/05/02 13:01:42;;;;;;;0.10;0.10;;;;;;;21.69;37.21;101391.34;5142453;27;20070;-30
2022/05/02 13:04:14;;;;;;;0.10;0.10;;;;;;;21.70;37.17;101384.66;5157173;27;20059;-29
2022/05/02 13:06:40;;;;;;;0.10;0.10;;;;;;;21.71;37.24;101382.72;5154131;27;20043;-29
2022/05/02 13:09:09;;;;;;;0.10;0.10;;;;;;;21.71;37.28;101383.53;5155180;27;20436;-30
2022/05/02 13:11:35;;;;;;;;;;;;;;;21.72;37.40;101388.00;5158622;27;20085;-30
2022/05/02 13:14:02;;;;;;;0.10;0.10;;;;;;;21.72;37.32;101368.59;5159988;27;19927;-31
2022/05/02 13:16:30;;;;;;;0.10;0.10;;;;;;;21.73;37.32;101370.25;5144637;27;20074;-29
2022/05/02 13:19:00;;;;;;;0.10;0.10;;;;;;;21.74;37.38;101368.31;5140378;27;20054;-29
2022/05/02 13:21:26;;;;;;;0.10;0.10;;;;;;;21.74;37.41;101368.31;5141790;27;20108;-29
2022/05/02 13:24:12;;;;;;;0.10;0.10;;;;;;;21.74;37.37;101368.31;5126212;27;20275;-29
2022/05/02 13:27:02;;;;;;;0.20;0.20;;;;;;;21.76;37.39;101363.28;5128491;27;20118;-30
2022/05/02 13:29:36;;;;;;;0.10;0.10;;;;;;;21.76;37.44;101361.38;5128196;27;20074;-30
2022/05/02 13:32:04;;;;;;;0.10;0.10;;;;;;;21.77;37.40;101356.66;5141939;27;20082;-31
2022/05/02 13:34:55;;;;;;;0.10;0.10;;;;;;;21.77;37.41;101356.66;5126219;27;20512;-30
2022/05/02 13:38:01;;;;;;;0.10;0.10;;;;;;;21.77;37.45;101348.31;5125835;27;20493;-31
2022/05/02 13:40:50;;;;;;;0.10;0.10;;;;;;;21.78;37.52;101352.75;5107819;27;20085;-30
2022/05/02 13:43:44;;;;;;;0.10;0.10;;;;;;;21.79;37.53;101346.06;5129594;27;20885;-32
2022/05/02 13:46:22;;;;;;;0.10;0.10;;;;;;;21.78;37.54;101341.66;5112184;28;20134;-30
2022/05/02 13:49:03;;;;;;;0.10;0.10;;;;;;;21.77;37.52;101346.38;5129417;27;20513;-30
2022/05/02 13:51:39;;;;;;;0.10;0.10;;;;;;;21.76;37.50;101339.19;5118054;27;20126;-29